sensor_id;sensor_type;location;lat;lon;timestamp;P1;durP1;ratioP1;P2;durP2;ratioP2
5483;SDS011;2764;48.794;8.326;2023-09-19T00:00:01;1.97;;;1.50;;
5483;SDS011;2764;48.794;8.326;2023-09-19T00:01:06;6.33;;;1.83;;
5483;SDS011;2764;48.794;8.326;2023-09-19T00:02:12;4.93;;;1.40;;
5483;SDS011;2764;48.794;8.326;2023-09-19T00:03:15;2.23;;;1.50;;
5483;SDS011;2764;48.794;8.326;2023-09-19T00:04:17;1.97;;;1.40;;
5483;SDS011;2764;48.794;8.326;2023-09-19T00:05:25;1.60;;;1.50;;
5483;SDS011;2764;48.794;8.326;2023-09-19T00:06:31;1.63;;;1.50;;
5483;SDS011;2764;48.794;8.326;2023-09-19T00:07:33;2.00;;;1.57;;
5483;SDS011;2764;48.794;8.326;2023-09-19T00:08:35;7.77;;;2.50;;
5483;SDS011;2764;48.794;8.326;2023-09-19T00:09:38;5.40;;;1.70;;
5483;SDS011;2764;48.794;8.326;2023-09-19T00:10:42;3.73;;;1.57;;
5483;SDS011;2764;48.794;8.326;2023-09-19T00:11:45;2.23;;;1.20;;
5483;SDS011;2764;48.794;8.326;2023-09-19T00:12:51;3.43;;;1.90;;
5483;SDS011;2764;48.794;8.326;2023-09-19T00:13:55;4.43;;;1.23;;
5483;SDS011;2764;48.794;8.326;2023-09-19T00:15:00;2.63;;;1.30;;
5483;SDS011;2764;48.794;8.326;2023-09-19T00:16:10;1.67;;;0.90;;
5483;SDS011;2764;48.794;8.326;2023-09-19T00:17:16;2.67;;;1.23;;
5483;SDS011;2764;48.794;8.326;2023-09-19T00:18:20;4.13;;;1.07;;
5483;SDS011;2764;48.794;8.326;2023-09-19T00:19:29;1.20;;;1.10;;
5483;SDS011;2764;48.794;8.326;2023-09-19T00:20:31;2.00;;;1.33;;
5483;SDS011;2764;48.794;8.326;2023-09-19T00:21:34;0.93;;;0.93;;
5483;SDS011;2764;48.794;8.326;2023-09-19T00:22:39;1.00;;;1.00;;
5483;SDS011;2764;48.794;8.326;2023-09-19T00:23:51;2.87;;;1.20;;
5483;SDS011;2764;48.794;8.326;2023-09-19T00:24:54;4.80;;;1.40;;
5483;SDS011;2764;48.794;8.326;2023-09-19T00:26:00;2.27;;;1.50;;
5483;SDS011;2764;48.794;8.326;2023-09-19T00:27:02;10.97;;;1.23;;
5483;SDS011;2764;48.794;8.326;2023-09-19T00:28:07;1.20;;;1.10;;
5483;SDS011;2764;48.794;8.326;2023-09-19T00:29:11;3.83;;;1.00;;
5483;SDS011;2764;48.794;8.326;2023-09-19T00:30:13;0.90;;;0.90;;
5483;SDS011;2764;48.794;8.326;2023-09-19T00:31:17;1.33;;;1.17;;
5483;SDS011;2764;48.794;8.326;2023-09-19T00:32:19;3.13;;;1.10;;
5483;SDS011;2764;48.794;8.326;2023-09-19T00:33:22;3.83;;;1.10;;
5483;SDS011;2764;48.794;8.326;2023-09-19T00:34:26;2.50;;;1.30;;
5483;SDS011;2764;48.794;8.326;2023-09-19T00:35:32;1.03;;;1.03;;
5483;SDS011;2764;48.794;8.326;2023-09-19T00:36:38;6.53;;;1.37;;
5483;SDS011;2764;48.794;8.326;2023-09-19T00:37:41;1.53;;;0.80;;
5483;SDS011;2764;48.794;8.326;2023-09-19T00:38:43;1.50;;;1.00;;
5483;SDS011;2764;48.794;8.326;2023-09-19T00:39:47;3.90;;;1.03;;
5483;SDS011;2764;48.794;8.326;2023-09-19T00:40:50;1.77;;;0.80;;
5483;SDS011;2764;48.794;8.326;2023-09-19T00:41:58;1.73;;;1.13;;
5483;SDS011;2764;48.794;8.326;2023-09-19T00:43:06;4.30;;;1.30;;
5483;SDS011;2764;48.794;8.326;2023-09-19T00:44:10;1.90;;;1.20;;
5483;SDS011;2764;48.794;8.326;2023-09-19T00:45:14;1.10;;;1.00;;
5483;SDS011;2764;48.794;8.326;2023-09-19T00:46:18;1.93;;;1.13;;
5483;SDS011;2764;48.794;8.326;2023-09-19T00:47:21;0.90;;;0.90;;
5483;SDS011;2764;48.794;8.326;2023-09-19T00:48:24;1.30;;;1.10;;
5483;SDS011;2764;48.794;8.326;2023-09-19T00:49:33;1.40;;;1.20;;
5483;SDS011;2764;48.794;8.326;2023-09-19T00:50:36;1.47;;;1.37;;
5483;SDS011;2764;48.794;8.326;2023-09-19T00:51:38;3.03;;;0.83;;
5483;SDS011;2764;48.794;8.326;2023-09-19T00:52:43;2.00;;;1.00;;
5483;SDS011;2764;48.794;8.326;2023-09-19T00:53:46;1.10;;;1.00;;
5483;SDS011;2764;48.794;8.326;2023-09-19T00:54:49;4.13;;;1.00;;
5483;SDS011;2764;48.794;8.326;2023-09-19T00:55:53;5.40;;;0.93;;
5483;SDS011;2764;48.794;8.326;2023-09-19T00:56:56;1.57;;;1.10;;
5483;SDS011;2764;48.794;8.326;2023-09-19T00:57:58;4.30;;;1.37;;
5483;SDS011;2764;48.794;8.326;2023-09-19T00:59:00;2.60;;;1.10;;
5483;SDS011;2764;48.794;8.326;2023-09-19T01:00:02;1.63;;;1.20;;
5483;SDS011;2764;48.794;8.326;2023-09-19T01:01:09;1.23;;;1.23;;
5483;SDS011;2764;48.794;8.326;2023-09-19T01:02:13;1.10;;;0.90;;
5483;SDS011;2764;48.794;8.326;2023-09-19T01:03:17;1.50;;;1.00;;
5483;SDS011;2764;48.794;8.326;2023-09-19T01:04:20;3.10;;;1.10;;
5483;SDS011;2764;48.794;8.326;2023-09-19T01:05:22;0.90;;;0.90;;
5483;SDS011;2764;48.794;8.326;2023-09-19T01:06:25;1.93;;;0.93;;
5483;SDS011;2764;48.794;8.326;2023-09-19T01:07:28;1.40;;;1.20;;
5483;SDS011;2764;48.794;8.326;2023-09-19T01:08:31;4.67;;;1.00;;
5483;SDS011;2764;48.794;8.326;2023-09-19T01:09:34;3.97;;;1.00;;
5483;SDS011;2764;48.794;8.326;2023-09-19T01:10:36;1.53;;;0.97;;
5483;SDS011;2764;48.794;8.326;2023-09-19T01:11:47;2.43;;;0.90;;
5483;SDS011;2764;48.794;8.326;2023-09-19T01:17:09;1.00;;;1.00;;
5483;SDS011;2764;48.794;8.326;2023-09-19T01:19:12;2.17;;;1.30;;
5483;SDS011;2764;48.794;8.326;2023-09-19T01:29:39;1.83;;;1.00;;
5483;SDS011;2764;48.794;8.326;2023-09-19T01:30:46;3.17;;;1.20;;
5483;SDS011;2764;48.794;8.326;2023-09-19T01:31:49;1.83;;;1.33;;
5483;SDS011;2764;48.794;8.326;2023-09-19T01:32:56;1.80;;;1.60;;
5483;SDS011;2764;48.794;8.326;2023-09-19T01:34:00;1.50;;;0.90;;
5483;SDS011;2764;48.794;8.326;2023-09-19T01:35:06;1.90;;;1.43;;
5483;SDS011;2764;48.794;8.326;2023-09-19T01:36:08;1.80;;;1.23;;
5483;SDS011;2764;48.794;8.326;2023-09-19T01:37:11;9.27;;;1.30;;
5483;SDS011;2764;48.794;8.326;2023-09-19T01:38:12;3.10;;;1.00;;
5483;SDS011;2764;48.794;8.326;2023-09-19T01:39:17;1.60;;;1.03;;
5483;SDS011;2764;48.794;8.326;2023-09-19T01:40:20;2.27;;;1.00;;
5483;SDS011;2764;48.794;8.326;2023-09-19T01:43:11;1.37;;;0.90;;
5483;SDS011;2764;48.794;8.326;2023-09-19T01:44:28;1.03;;;1.00;;
5483;SDS011;2764;48.794;8.326;2023-09-19T01:45:57;2.40;;;1.00;;
5483;SDS011;2764;48.794;8.326;2023-09-19T01:47:09;1.43;;;1.03;;
5483;SDS011;2764;48.794;8.326;2023-09-19T01:48:39;1.20;;;1.10;;
5483;SDS011;2764;48.794;8.326;2023-09-19T01:50:17;2.10;;;1.23;;
5483;SDS011;2764;48.794;8.326;2023-09-19T01:51:42;0.93;;;0.83;;
5483;SDS011;2764;48.794;8.326;2023-09-19T01:53:00;0.80;;;0.80;;
5483;SDS011;2764;48.794;8.326;2023-09-19T01:54:10;1.10;;;1.10;;
5483;SDS011;2764;48.794;8.326;2023-09-19T01:55:13;2.60;;;1.20;;
5483;SDS011;2764;48.794;8.326;2023-09-19T01:56:28;1.83;;;0.90;;
5483;SDS011;2764;48.794;8.326;2023-09-19T01:57:40;1.37;;;1.17;;
5483;SDS011;2764;48.794;8.326;2023-09-19T01:58:53;3.83;;;1.37;;
5483;SDS011;2764;48.794;8.326;2023-09-19T02:00:06;1.10;;;1.00;;
5483;SDS011;2764;48.794;8.326;2023-09-19T02:01:19;1.23;;;1.07;;
5483;SDS011;2764;48.794;8.326;2023-09-19T02:02:24;1.17;;;0.90;;
5483;SDS011;2764;48.794;8.326;2023-09-19T02:03:27;1.87;;;1.17;;
5483;SDS011;2764;48.794;8.326;2023-09-19T02:04:34;3.20;;;1.30;;
5483;SDS011;2764;48.794;8.326;2023-09-19T02:05:38;1.50;;;1.40;;
5483;SDS011;2764;48.794;8.326;2023-09-19T02:06:41;1.07;;;0.97;;
5483;SDS011;2764;48.794;8.326;2023-09-19T02:07:44;1.47;;;1.10;;
5483;SDS011;2764;48.794;8.326;2023-09-19T02:08:46;1.77;;;1.00;;
5483;SDS011;2764;48.794;8.326;2023-09-19T02:09:49;1.40;;;1.30;;
5483;SDS011;2764;48.794;8.326;2023-09-19T02:10:52;1.17;;;1.00;;
5483;SDS011;2764;48.794;8.326;2023-09-19T02:11:56;1.33;;;1.07;;
5483;SDS011;2764;48.794;8.326;2023-09-19T02:13:01;1.67;;;1.40;;
5483;SDS011;2764;48.794;8.326;2023-09-19T02:14:06;0.80;;;0.80;;
5483;SDS011;2764;48.794;8.326;2023-09-19T02:15:09;3.20;;;1.23;;
5483;SDS011;2764;48.794;8.326;2023-09-19T02:16:12;2.00;;;1.00;;
5483;SDS011;2764;48.794;8.326;2023-09-19T02:17:14;3.03;;;1.20;;
5483;SDS011;2764;48.794;8.326;2023-09-19T02:18:16;1.30;;;1.20;;
5483;SDS011;2764;48.794;8.326;2023-09-19T02:19:18;1.70;;;1.10;;
5483;SDS011;2764;48.794;8.326;2023-09-19T02:20:22;1.87;;;0.90;;
5483;SDS011;2764;48.794;8.326;2023-09-19T02:21:24;3.23;;;1.23;;
5483;SDS011;2764;48.794;8.326;2023-09-19T02:22:27;1.17;;;0.90;;
5483;SDS011;2764;48.794;8.326;2023-09-19T02:23:41;3.87;;;0.93;;
5483;SDS011;2764;48.794;8.326;2023-09-19T02:24:46;1.00;;;1.00;;
5483;SDS011;2764;48.794;8.326;2023-09-19T02:25:55;3.83;;;1.67;;
5483;SDS011;2764;48.794;8.326;2023-09-19T02:27:02;1.20;;;0.90;;
5483;SDS011;2764;48.794;8.326;2023-09-19T02:28:09;3.77;;;1.23;;
5483;SDS011;2764;48.794;8.326;2023-09-19T02:29:14;1.30;;;1.07;;
5483;SDS011;2764;48.794;8.326;2023-09-19T02:30:19;1.17;;;1.07;;
5483;SDS011;2764;48.794;8.326;2023-09-19T02:31:23;5.07;;;1.37;;
5483;SDS011;2764;48.794;8.326;2023-09-19T02:32:25;1.27;;;1.17;;
5483;SDS011;2764;48.794;8.326;2023-09-19T02:33:27;4.00;;;1.20;;
5483;SDS011;2764;48.794;8.326;2023-09-19T02:34:34;2.10;;;1.10;;
5483;SDS011;2764;48.794;8.326;2023-09-19T02:35:37;1.37;;;1.27;;
5483;SDS011;2764;48.794;8.326;2023-09-19T02:36:39;8.43;;;0.83;;
5483;SDS011;2764;48.794;8.326;2023-09-19T02:37:42;4.40;;;1.13;;
5483;SDS011;2764;48.794;8.326;2023-09-19T02:38:44;2.67;;;1.10;;
5483;SDS011;2764;48.794;8.326;2023-09-19T02:39:46;2.80;;;1.07;;
5483;SDS011;2764;48.794;8.326;2023-09-19T02:40:49;2.10;;;1.13;;
5483;SDS011;2764;48.794;8.326;2023-09-19T02:41:51;1.83;;;1.73;;
5483;SDS011;2764;48.794;8.326;2023-09-19T02:42:55;4.10;;;1.73;;
5483;SDS011;2764;48.794;8.326;2023-09-19T02:43:57;3.90;;;1.03;;
5483;SDS011;2764;48.794;8.326;2023-09-19T02:45:00;1.67;;;1.40;;
5483;SDS011;2764;48.794;8.326;2023-09-19T02:46:02;5.23;;;1.40;;
5483;SDS011;2764;48.794;8.326;2023-09-19T02:47:04;1.20;;;1.00;;
5483;SDS011;2764;48.794;8.326;2023-09-19T02:48:06;1.80;;;0.90;;
5483;SDS011;2764;48.794;8.326;2023-09-19T02:49:09;2.83;;;1.20;;
5483;SDS011;2764;48.794;8.326;2023-09-19T02:50:11;2.40;;;1.00;;
5483;SDS011;2764;48.794;8.326;2023-09-19T02:51:20;2.97;;;1.00;;
5483;SDS011;2764;48.794;8.326;2023-09-19T02:52:23;2.70;;;1.17;;
5483;SDS011;2764;48.794;8.326;2023-09-19T02:53:26;1.00;;;0.80;;
5483;SDS011;2764;48.794;8.326;2023-09-19T02:54:29;2.67;;;1.10;;
5483;SDS011;2764;48.794;8.326;2023-09-19T02:55:32;3.17;;;1.00;;
5483;SDS011;2764;48.794;8.326;2023-09-19T02:56:35;2.67;;;1.27;;
5483;SDS011;2764;48.794;8.326;2023-09-19T02:57:40;4.50;;;1.60;;
5483;SDS011;2764;48.794;8.326;2023-09-19T02:58:45;3.37;;;1.37;;
5483;SDS011;2764;48.794;8.326;2023-09-19T02:59:47;1.60;;;1.50;;
5483;SDS011;2764;48.794;8.326;2023-09-19T03:00:50;4.40;;;1.10;;
5483;SDS011;2764;48.794;8.326;2023-09-19T03:01:53;2.60;;;1.40;;
5483;SDS011;2764;48.794;8.326;2023-09-19T03:02:56;1.63;;;1.20;;
5483;SDS011;2764;48.794;8.326;2023-09-19T03:03:58;1.10;;;1.00;;
5483;SDS011;2764;48.794;8.326;2023-09-19T03:05:00;4.93;;;1.20;;
5483;SDS011;2764;48.794;8.326;2023-09-19T03:06:05;4.57;;;1.27;;
5483;SDS011;2764;48.794;8.326;2023-09-19T03:07:08;1.63;;;1.10;;
5483;SDS011;2764;48.794;8.326;2023-09-19T03:08:14;1.73;;;1.40;;
5483;SDS011;2764;48.794;8.326;2023-09-19T03:09:19;3.63;;;1.23;;
5483;SDS011;2764;48.794;8.326;2023-09-19T03:10:21;1.87;;;1.20;;
5483;SDS011;2764;48.794;8.326;2023-09-19T03:11:24;2.03;;;1.20;;
5483;SDS011;2764;48.794;8.326;2023-09-19T03:12:26;2.13;;;1.17;;
5483;SDS011;2764;48.794;8.326;2023-09-19T03:13:28;9.67;;;1.20;;
5483;SDS011;2764;48.794;8.326;2023-09-19T03:14:32;2.40;;;1.37;;
5483;SDS011;2764;48.794;8.326;2023-09-19T03:15:40;2.30;;;0.90;;
5483;SDS011;2764;48.794;8.326;2023-09-19T03:16:45;1.43;;;1.23;;
5483;SDS011;2764;48.794;8.326;2023-09-19T03:17:48;2.97;;;0.97;;
5483;SDS011;2764;48.794;8.326;2023-09-19T03:18:50;0.97;;;0.87;;
5483;SDS011;2764;48.794;8.326;2023-09-19T03:19:53;1.73;;;1.63;;
5483;SDS011;2764;48.794;8.326;2023-09-19T03:20:55;1.80;;;1.03;;
5483;SDS011;2764;48.794;8.326;2023-09-19T03:22:01;1.07;;;1.07;;
5483;SDS011;2764;48.794;8.326;2023-09-19T03:23:04;2.10;;;1.27;;
5483;SDS011;2764;48.794;8.326;2023-09-19T03:24:07;5.50;;;1.57;;
5483;SDS011;2764;48.794;8.326;2023-09-19T03:25:10;2.27;;;1.20;;
5483;SDS011;2764;48.794;8.326;2023-09-19T03:26:13;2.20;;;1.13;;
5483;SDS011;2764;48.794;8.326;2023-09-19T03:27:17;4.50;;;1.30;;
5483;SDS011;2764;48.794;8.326;2023-09-19T03:28:20;4.53;;;1.27;;
5483;SDS011;2764;48.794;8.326;2023-09-19T03:29:26;2.50;;;1.10;;
5483;SDS011;2764;48.794;8.326;2023-09-19T03:30:28;1.93;;;1.47;;
5483;SDS011;2764;48.794;8.326;2023-09-19T03:31:32;2.63;;;1.33;;
5483;SDS011;2764;48.794;8.326;2023-09-19T03:32:37;1.73;;;1.30;;
5483;SDS011;2764;48.794;8.326;2023-09-19T03:33:48;3.00;;;1.53;;
5483;SDS011;2764;48.794;8.326;2023-09-19T03:34:53;3.10;;;1.10;;
5483;SDS011;2764;48.794;8.326;2023-09-19T03:35:55;4.10;;;1.73;;
5483;SDS011;2764;48.794;8.326;2023-09-19T03:37:00;2.40;;;1.20;;
5483;SDS011;2764;48.794;8.326;2023-09-19T03:38:02;1.03;;;0.90;;
5483;SDS011;2764;48.794;8.326;2023-09-19T03:39:05;2.33;;;1.57;;
5483;SDS011;2764;48.794;8.326;2023-09-19T03:40:08;2.77;;;1.50;;
5483;SDS011;2764;48.794;8.326;2023-09-19T03:41:14;3.80;;;1.50;;
5483;SDS011;2764;48.794;8.326;2023-09-19T03:42:18;4.20;;;1.57;;
5483;SDS011;2764;48.794;8.326;2023-09-19T03:43:27;3.90;;;1.90;;
5483;SDS011;2764;48.794;8.326;2023-09-19T03:44:29;1.80;;;1.37;;
5483;SDS011;2764;48.794;8.326;2023-09-19T03:45:35;1.40;;;1.23;;
5483;SDS011;2764;48.794;8.326;2023-09-19T03:46:40;3.00;;;2.00;;
5483;SDS011;2764;48.794;8.326;2023-09-19T03:47:47;3.50;;;1.77;;
5483;SDS011;2764;48.794;8.326;2023-09-19T03:48:49;4.00;;;1.97;;
5483;SDS011;2764;48.794;8.326;2023-09-19T03:49:52;2.30;;;1.40;;
5483;SDS011;2764;48.794;8.326;2023-09-19T03:50:53;3.40;;;1.40;;
5483;SDS011;2764;48.794;8.326;2023-09-19T03:51:58;2.67;;;1.50;;
5483;SDS011;2764;48.794;8.326;2023-09-19T03:53:01;8.07;;;1.93;;
5483;SDS011;2764;48.794;8.326;2023-09-19T03:54:04;6.30;;;1.70;;
5483;SDS011;2764;48.794;8.326;2023-09-19T03:55:07;2.07;;;1.40;;
5483;SDS011;2764;48.794;8.326;2023-09-19T03:56:13;1.80;;;1.70;;
5483;SDS011;2764;48.794;8.326;2023-09-19T03:57:14;1.90;;;1.53;;
5483;SDS011;2764;48.794;8.326;2023-09-19T03:58:23;1.73;;;1.63;;
5483;SDS011;2764;48.794;8.326;2023-09-19T03:59:27;3.00;;;1.93;;
5483;SDS011;2764;48.794;8.326;2023-09-19T04:00:31;1.50;;;1.40;;
5483;SDS011;2764;48.794;8.326;2023-09-19T04:01:33;5.47;;;1.70;;
5483;SDS011;2764;48.794;8.326;2023-09-19T04:02:35;2.43;;;1.40;;
5483;SDS011;2764;48.794;8.326;2023-09-19T04:03:40;3.40;;;1.30;;
5483;SDS011;2764;48.794;8.326;2023-09-19T04:04:50;3.00;;;1.40;;
5483;SDS011;2764;48.794;8.326;2023-09-19T04:05:52;1.77;;;1.67;;
5483;SDS011;2764;48.794;8.326;2023-09-19T04:06:54;3.53;;;1.27;;
5483;SDS011;2764;48.794;8.326;2023-09-19T04:07:57;4.77;;;1.30;;
5483;SDS011;2764;48.794;8.326;2023-09-19T04:08:59;1.40;;;1.30;;
5483;SDS011;2764;48.794;8.326;2023-09-19T04:10:03;2.07;;;1.40;;
5483;SDS011;2764;48.794;8.326;2023-09-19T04:11:06;6.10;;;1.20;;
5483;SDS011;2764;48.794;8.326;2023-09-19T04:12:08;3.37;;;1.47;;
5483;SDS011;2764;48.794;8.326;2023-09-19T04:13:10;2.37;;;1.40;;
5483;SDS011;2764;48.794;8.326;2023-09-19T04:14:13;3.13;;;2.07;;
5483;SDS011;2764;48.794;8.326;2023-09-19T04:15:15;4.17;;;2.33;;
5483;SDS011;2764;48.794;8.326;2023-09-19T04:16:18;3.10;;;2.10;;
5483;SDS011;2764;48.794;8.326;2023-09-19T04:17:21;6.70;;;2.40;;
5483;SDS011;2764;48.794;8.326;2023-09-19T04:18:23;5.73;;;2.07;;
5483;SDS011;2764;48.794;8.326;2023-09-19T04:19:25;6.80;;;2.27;;
5483;SDS011;2764;48.794;8.326;2023-09-19T04:20:27;3.77;;;2.07;;
5483;SDS011;2764;48.794;8.326;2023-09-19T04:21:29;5.70;;;2.30;;
5483;SDS011;2764;48.794;8.326;2023-09-19T04:22:31;9.30;;;1.80;;
5483;SDS011;2764;48.794;8.326;2023-09-19T04:23:33;5.87;;;2.57;;
5483;SDS011;2764;48.794;8.326;2023-09-19T04:24:36;3.53;;;2.60;;
5483;SDS011;2764;48.794;8.326;2023-09-19T04:25:40;10.53;;;2.40;;
5483;SDS011;2764;48.794;8.326;2023-09-19T04:26:42;11.90;;;2.40;;
5483;SDS011;2764;48.794;8.326;2023-09-19T04:27:46;5.37;;;2.50;;
5483;SDS011;2764;48.794;8.326;2023-09-19T04:28:51;3.87;;;2.80;;
5483;SDS011;2764;48.794;8.326;2023-09-19T04:29:53;5.60;;;2.80;;
5483;SDS011;2764;48.794;8.326;2023-09-19T04:31:14;4.50;;;2.30;;
5483;SDS011;2764;48.794;8.326;2023-09-19T04:32:17;3.27;;;2.37;;
5483;SDS011;2764;48.794;8.326;2023-09-19T04:33:20;2.30;;;2.10;;
5483;SDS011;2764;48.794;8.326;2023-09-19T04:34:23;9.30;;;2.90;;
5483;SDS011;2764;48.794;8.326;2023-09-19T04:35:26;6.10;;;2.90;;
5483;SDS011;2764;48.794;8.326;2023-09-19T04:36:33;3.87;;;2.80;;
5483;SDS011;2764;48.794;8.326;2023-09-19T04:37:38;4.43;;;2.60;;
5483;SDS011;2764;48.794;8.326;2023-09-19T04:38:41;5.63;;;2.60;;
5483;SDS011;2764;48.794;8.326;2023-09-19T04:39:48;3.53;;;2.70;;
5483;SDS011;2764;48.794;8.326;2023-09-19T04:40:50;7.30;;;2.70;;
5483;SDS011;2764;48.794;8.326;2023-09-19T04:41:58;3.30;;;2.70;;
5483;SDS011;2764;48.794;8.326;2023-09-19T04:43:03;6.67;;;3.27;;
5483;SDS011;2764;48.794;8.326;2023-09-19T04:44:05;5.63;;;3.20;;
5483;SDS011;2764;48.794;8.326;2023-09-19T04:45:08;4.80;;;2.60;;
5483;SDS011;2764;48.794;8.326;2023-09-19T04:46:11;4.03;;;3.07;;
5483;SDS011;2764;48.794;8.326;2023-09-19T04:47:16;6.93;;;3.00;;
5483;SDS011;2764;48.794;8.326;2023-09-19T04:48:19;3.30;;;3.00;;
5483;SDS011;2764;48.794;8.326;2023-09-19T04:49:22;6.50;;;3.47;;
5483;SDS011;2764;48.794;8.326;2023-09-19T04:50:24;8.33;;;2.57;;
5483;SDS011;2764;48.794;8.326;2023-09-19T04:51:29;6.27;;;3.33;;
5483;SDS011;2764;48.794;8.326;2023-09-19T04:52:39;2.57;;;2.37;;
5483;SDS011;2764;48.794;8.326;2023-09-19T04:53:43;5.10;;;2.30;;
5483;SDS011;2764;48.794;8.326;2023-09-19T04:54:45;3.47;;;2.97;;
5483;SDS011;2764;48.794;8.326;2023-09-19T04:55:51;13.57;;;3.70;;
5483;SDS011;2764;48.794;8.326;2023-09-19T04:56:55;5.93;;;3.27;;
5483;SDS011;2764;48.794;8.326;2023-09-19T04:57:57;6.83;;;3.00;;
5483;SDS011;2764;48.794;8.326;2023-09-19T04:58:59;6.00;;;2.80;;
5483;SDS011;2764;48.794;8.326;2023-09-19T05:00:01;4.40;;;3.27;;
5483;SDS011;2764;48.794;8.326;2023-09-19T05:01:11;4.37;;;3.50;;
5483;SDS011;2764;48.794;8.326;2023-09-19T05:02:14;3.63;;;3.20;;
5483;SDS011;2764;48.794;8.326;2023-09-19T05:03:15;5.03;;;3.50;;
5483;SDS011;2764;48.794;8.326;2023-09-19T05:04:21;4.33;;;3.40;;
5483;SDS011;2764;48.794;8.326;2023-09-19T05:05:24;3.90;;;3.47;;
5483;SDS011;2764;48.794;8.326;2023-09-19T05:06:29;4.07;;;3.27;;
5483;SDS011;2764;48.794;8.326;2023-09-19T05:07:32;5.93;;;3.27;;
5483;SDS011;2764;48.794;8.326;2023-09-19T05:08:35;3.50;;;3.20;;
5483;SDS011;2764;48.794;8.326;2023-09-19T05:09:37;9.80;;;4.10;;
5483;SDS011;2764;48.794;8.326;2023-09-19T05:10:39;13.73;;;3.80;;
5483;SDS011;2764;48.794;8.326;2023-09-19T05:11:44;4.37;;;3.37;;
5483;SDS011;2764;48.794;8.326;2023-09-19T05:12:46;6.20;;;3.10;;
5483;SDS011;2764;48.794;8.326;2023-09-19T05:13:50;7.00;;;3.87;;
5483;SDS011;2764;48.794;8.326;2023-09-19T05:14:54;7.70;;;3.00;;
5483;SDS011;2764;48.794;8.326;2023-09-19T05:15:59;6.03;;;4.27;;
5483;SDS011;2764;48.794;8.326;2023-09-19T05:17:04;3.07;;;2.87;;
5483;SDS011;2764;48.794;8.326;2023-09-19T05:18:06;7.10;;;3.40;;
5483;SDS011;2764;48.794;8.326;2023-09-19T05:19:09;9.33;;;3.70;;
5483;SDS011;2764;48.794;8.326;2023-09-19T05:20:13;7.50;;;3.70;;
5483;SDS011;2764;48.794;8.326;2023-09-19T05:21:20;12.90;;;3.90;;
5483;SDS011;2764;48.794;8.326;2023-09-19T05:22:28;5.50;;;3.83;;
5483;SDS011;2764;48.794;8.326;2023-09-19T05:23:31;14.53;;;3.80;;
5483;SDS011;2764;48.794;8.326;2023-09-19T05:24:34;7.50;;;3.43;;
5483;SDS011;2764;48.794;8.326;2023-09-19T05:25:36;6.63;;;3.70;;
5483;SDS011;2764;48.794;8.326;2023-09-19T05:26:42;7.97;;;3.90;;
5483;SDS011;2764;48.794;8.326;2023-09-19T05:27:43;6.13;;;3.00;;
5483;SDS011;2764;48.794;8.326;2023-09-19T05:28:46;7.63;;;3.97;;
5483;SDS011;2764;48.794;8.326;2023-09-19T05:29:52;7.00;;;4.00;;
5483;SDS011;2764;48.794;8.326;2023-09-19T05:30:54;9.90;;;4.27;;
5483;SDS011;2764;48.794;8.326;2023-09-19T05:31:59;6.73;;;3.77;;
5483;SDS011;2764;48.794;8.326;2023-09-19T05:33:04;6.97;;;3.60;;
5483;SDS011;2764;48.794;8.326;2023-09-19T05:34:09;5.30;;;3.90;;
5483;SDS011;2764;48.794;8.326;2023-09-19T05:35:11;10.33;;;3.43;;
5483;SDS011;2764;48.794;8.326;2023-09-19T05:36:21;6.30;;;3.77;;
5483;SDS011;2764;48.794;8.326;2023-09-19T05:37:27;6.97;;;3.90;;
5483;SDS011;2764;48.794;8.326;2023-09-19T05:38:31;6.00;;;2.50;;
5483;SDS011;2764;48.794;8.326;2023-09-19T05:39:34;14.33;;;3.53;;
5483;SDS011;2764;48.794;8.326;2023-09-19T05:40:37;11.33;;;3.63;;
5483;SDS011;2764;48.794;8.326;2023-09-19T05:41:40;9.10;;;3.83;;
5483;SDS011;2764;48.794;8.326;2023-09-19T05:42:48;5.97;;;3.57;;
5483;SDS011;2764;48.794;8.326;2023-09-19T05:43:51;14.33;;;4.33;;
5483;SDS011;2764;48.794;8.326;2023-09-19T05:44:53;9.33;;;3.57;;
5483;SDS011;2764;48.794;8.326;2023-09-19T05:45:55;6.67;;;3.37;;
5483;SDS011;2764;48.794;8.326;2023-09-19T05:46:58;7.63;;;3.97;;
5483;SDS011;2764;48.794;8.326;2023-09-19T05:48:14;12.07;;;4.77;;
5483;SDS011;2764;48.794;8.326;2023-09-19T05:49:21;8.63;;;3.90;;
5483;SDS011;2764;48.794;8.326;2023-09-19T05:50:23;8.90;;;4.10;;
5483;SDS011;2764;48.794;8.326;2023-09-19T05:51:29;12.43;;;3.83;;
5483;SDS011;2764;48.794;8.326;2023-09-19T05:52:32;6.60;;;3.67;;
5483;SDS011;2764;48.794;8.326;2023-09-19T05:53:34;5.70;;;3.43;;
5483;SDS011;2764;48.794;8.326;2023-09-19T05:54:41;5.33;;;3.60;;
5483;SDS011;2764;48.794;8.326;2023-09-19T05:55:54;8.87;;;3.67;;
5483;SDS011;2764;48.794;8.326;2023-09-19T05:56:58;6.73;;;3.83;;
5483;SDS011;2764;48.794;8.326;2023-09-19T05:58:01;12.53;;;4.33;;
5483;SDS011;2764;48.794;8.326;2023-09-19T05:59:05;10.53;;;4.30;;
5483;SDS011;2764;48.794;8.326;2023-09-19T06:00:07;8.87;;;3.50;;
5483;SDS011;2764;48.794;8.326;2023-09-19T06:01:14;15.27;;;3.93;;
5483;SDS011;2764;48.794;8.326;2023-09-19T06:02:16;5.53;;;3.67;;
5483;SDS011;2764;48.794;8.326;2023-09-19T06:03:21;6.27;;;4.27;;
5483;SDS011;2764;48.794;8.326;2023-09-19T06:04:23;4.47;;;3.80;;
5483;SDS011;2764;48.794;8.326;2023-09-19T06:05:27;4.33;;;3.87;;
5483;SDS011;2764;48.794;8.326;2023-09-19T06:06:30;8.10;;;4.73;;
5483;SDS011;2764;48.794;8.326;2023-09-19T06:07:34;7.47;;;3.53;;
5483;SDS011;2764;48.794;8.326;2023-09-19T06:08:39;8.67;;;4.13;;
5483;SDS011;2764;48.794;8.326;2023-09-19T06:09:41;7.47;;;4.07;;
5483;SDS011;2764;48.794;8.326;2023-09-19T06:10:44;7.00;;;4.13;;
5483;SDS011;2764;48.794;8.326;2023-09-19T06:11:49;22.50;;;4.90;;
5483;SDS011;2764;48.794;8.326;2023-09-19T06:12:52;8.10;;;4.00;;
5483;SDS011;2764;48.794;8.326;2023-09-19T06:14:02;6.23;;;4.30;;
5483;SDS011;2764;48.794;8.326;2023-09-19T06:15:06;4.90;;;3.70;;
5483;SDS011;2764;48.794;8.326;2023-09-19T06:16:15;9.37;;;4.03;;
5483;SDS011;2764;48.794;8.326;2023-09-19T06:17:22;4.10;;;3.20;;
5483;SDS011;2764;48.794;8.326;2023-09-19T06:18:27;5.93;;;3.70;;
5483;SDS011;2764;48.794;8.326;2023-09-19T06:19:33;9.17;;;3.60;;
5483;SDS011;2764;48.794;8.326;2023-09-19T06:20:35;14.77;;;3.83;;
5483;SDS011;2764;48.794;8.326;2023-09-19T06:21:37;12.13;;;3.43;;
5483;SDS011;2764;48.794;8.326;2023-09-19T06:22:44;9.83;;;3.90;;
5483;SDS011;2764;48.794;8.326;2023-09-19T06:23:49;4.70;;;2.70;;
5483;SDS011;2764;48.794;8.326;2023-09-19T06:24:51;6.40;;;3.00;;
5483;SDS011;2764;48.794;8.326;2023-09-19T06:25:53;13.17;;;3.70;;
5483;SDS011;2764;48.794;8.326;2023-09-19T06:26:59;12.53;;;3.60;;
5483;SDS011;2764;48.794;8.326;2023-09-19T06:28:03;5.10;;;3.47;;
5483;SDS011;2764;48.794;8.326;2023-09-19T06:29:07;11.03;;;4.17;;
5483;SDS011;2764;48.794;8.326;2023-09-19T06:30:10;3.83;;;3.03;;
5483;SDS011;2764;48.794;8.326;2023-09-19T06:31:19;6.30;;;3.40;;
5483;SDS011;2764;48.794;8.326;2023-09-19T06:32:29;7.20;;;3.37;;
5483;SDS011;2764;48.794;8.326;2023-09-19T06:33:32;7.00;;;3.13;;
5483;SDS011;2764;48.794;8.326;2023-09-19T06:34:39;4.47;;;3.60;;
5483;SDS011;2764;48.794;8.326;2023-09-19T06:35:45;8.20;;;3.50;;
5483;SDS011;2764;48.794;8.326;2023-09-19T06:36:51;5.87;;;3.30;;
5483;SDS011;2764;48.794;8.326;2023-09-19T06:37:53;11.13;;;3.90;;
5483;SDS011;2764;48.794;8.326;2023-09-19T06:38:56;5.10;;;2.77;;
5483;SDS011;2764;48.794;8.326;2023-09-19T06:40:01;7.53;;;3.30;;
5483;SDS011;2764;48.794;8.326;2023-09-19T06:41:04;8.27;;;3.93;;
5483;SDS011;2764;48.794;8.326;2023-09-19T06:42:07;7.20;;;3.23;;
5483;SDS011;2764;48.794;8.326;2023-09-19T06:43:10;3.93;;;2.97;;
5483;SDS011;2764;48.794;8.326;2023-09-19T06:44:14;8.13;;;3.27;;
5483;SDS011;2764;48.794;8.326;2023-09-19T06:45:18;4.67;;;3.30;;
5483;SDS011;2764;48.794;8.326;2023-09-19T06:46:21;9.57;;;3.47;;
5483;SDS011;2764;48.794;8.326;2023-09-19T06:47:24;12.27;;;3.63;;
5483;SDS011;2764;48.794;8.326;2023-09-19T06:48:27;11.57;;;2.90;;
5483;SDS011;2764;48.794;8.326;2023-09-19T06:49:31;7.13;;;3.00;;
5483;SDS011;2764;48.794;8.326;2023-09-19T06:50:32;9.73;;;3.47;;
5483;SDS011;2764;48.794;8.326;2023-09-19T06:51:36;6.03;;;3.13;;
5483;SDS011;2764;48.794;8.326;2023-09-19T06:52:40;14.00;;;3.17;;
5483;SDS011;2764;48.794;8.326;2023-09-19T06:53:44;6.63;;;2.80;;
5483;SDS011;2764;48.794;8.326;2023-09-19T06:54:45;5.37;;;2.80;;
5483;SDS011;2764;48.794;8.326;2023-09-19T06:55:48;13.33;;;3.13;;
5483;SDS011;2764;48.794;8.326;2023-09-19T06:56:51;7.00;;;3.30;;